sensor_id;sensor_type;location;lat;lon;timestamp;P1;durP1;ratioP1;P2;durP2;ratioP2
23628;SDS011;11991;57.150;-2.134;2022-07-25T00:01:26;0.55;;;0.52;;
23628;SDS011;11991;57.150;-2.134;2022-07-25T00:03:55;0.40;;;0.40;;
23628;SDS011;11991;57.150;-2.134;2022-07-25T00:06:29;1.13;;;0.57;;
23628;SDS011;11991;57.150;-2.134;2022-07-25T00:08:58;0.52;;;0.52;;
23628;SDS011;11991;57.150;-2.134;2022-07-25T00:11:29;0.60;;;0.60;;
23628;SDS011;11991;57.150;-2.134;2022-07-25T00:13:56;0.50;;;0.50;;
23628;SDS011;11991;57.150;-2.134;2022-07-25T00:16:24;0.43;;;0.43;;
23628;SDS011;11991;57.150;-2.134;2022-07-25T00:18:52;0.50;;;0.45;;
23628;SDS011;11991;57.150;-2.134;2022-07-25T00:21:20;0.45;;;0.35;;
23628;SDS011;11991;57.150;-2.134;2022-07-25T00:23:49;0.73;;;0.63;;
23628;SDS011;11991;57.150;-2.134;2022-07-25T00:26:17;0.90;;;0.80;;
23628;SDS011;11991;57.150;-2.134;2022-07-25T00:28:49;0.85;;;0.85;;
23628;SDS011;11991;57.150;-2.134;2022-07-25T00:31:19;0.63;;;0.57;;
23628;SDS011;11991;57.150;-2.134;2022-07-25T00:33:49;1.05;;;0.60;;
23628;SDS011;11991;57.150;-2.134;2022-07-25T00:36:17;0.40;;;0.40;;
23628;SDS011;11991;57.150;-2.134;2022-07-25T00:38:46;0.70;;;0.52;;
23628;SDS011;11991;57.150;-2.134;2022-07-25T00:41:14;0.52;;;0.52;;
23628;SDS011;11991;57.150;-2.134;2022-07-25T00:43:44;0.70;;;0.70;;
23628;SDS011;11991;57.150;-2.134;2022-07-25T00:46:13;0.57;;;0.57;;
23628;SDS011;11991;57.150;-2.134;2022-07-25T00:48:46;0.40;;;0.40;;
23628;SDS011;11991;57.150;-2.134;2022-07-25T00:51:14;0.40;;;0.40;;
23628;SDS011;11991;57.150;-2.134;2022-07-25T00:53:44;0.40;;;0.40;;
23628;SDS011;11991;57.150;-2.134;2022-07-25T00:56:15;0.60;;;0.60;;
23628;SDS011;11991;57.150;-2.134;2022-07-25T00:58:46;0.70;;;0.70;;
23628;SDS011;11991;57.150;-2.134;2022-07-25T01:01:14;0.52;;;0.52;;
23628;SDS011;11991;57.150;-2.134;2022-07-25T01:03:43;0.60;;;0.60;;
23628;SDS011;11991;57.150;-2.134;2022-07-25T01:06:11;0.60;;;0.60;;
23628;SDS011;11991;57.150;-2.134;2022-07-25T01:08:39;0.75;;;0.75;;
23628;SDS011;11991;57.150;-2.134;2022-07-25T01:11:08;0.85;;;0.70;;
23628;SDS011;11991;57.150;-2.134;2022-07-25T01:13:40;0.90;;;0.77;;
23628;SDS011;11991;57.150;-2.134;2022-07-25T01:16:07;1.17;;;0.55;;
23628;SDS011;11991;57.150;-2.134;2022-07-25T01:18:35;0.40;;;0.40;;
23628;SDS011;11991;57.150;-2.134;2022-07-25T01:21:06;0.85;;;0.50;;
23628;SDS011;11991;57.150;-2.134;2022-07-25T01:23:36;0.45;;;0.45;;
23628;SDS011;11991;57.150;-2.134;2022-07-25T01:26:04;0.35;;;0.35;;
23628;SDS011;11991;57.150;-2.134;2022-07-25T01:28:34;0.30;;;0.30;;
23628;SDS011;11991;57.150;-2.134;2022-07-25T01:31:03;0.40;;;0.40;;
23628;SDS011;11991;57.150;-2.134;2022-07-25T01:33:36;0.32;;;0.32;;
23628;SDS011;11991;57.150;-2.134;2022-07-25T01:36:04;0.30;;;0.30;;
23628;SDS011;11991;57.150;-2.134;2022-07-25T01:38:33;0.30;;;0.30;;
23628;SDS011;11991;57.150;-2.134;2022-07-25T01:41:02;0.32;;;0.32;;
23628;SDS011;11991;57.150;-2.134;2022-07-25T01:43:30;1.25;;;0.30;;
23628;SDS011;11991;57.150;-2.134;2022-07-25T01:45:58;1.05;;;0.40;;
23628;SDS011;11991;57.150;-2.134;2022-07-25T01:48:31;0.40;;;0.40;;
23628;SDS011;11991;57.150;-2.134;2022-07-25T01:50:59;1.52;;;0.30;;
23628;SDS011;11991;57.150;-2.134;2022-07-25T01:53:29;0.30;;;0.30;;
23628;SDS011;11991;57.150;-2.134;2022-07-25T01:56:01;0.38;;;0.38;;
23628;SDS011;11991;57.150;-2.134;2022-07-25T01:58:35;0.40;;;0.40;;
23628;SDS011;11991;57.150;-2.134;2022-07-25T02:01:03;0.20;;;0.20;;
23628;SDS011;11991;57.150;-2.134;2022-07-25T02:03:31;0.30;;;0.30;;
23628;SDS011;11991;57.150;-2.134;2022-07-25T02:06:04;0.30;;;0.30;;
23628;SDS011;11991;57.150;-2.134;2022-07-25T02:08:33;0.30;;;0.30;;
23628;SDS011;11991;57.150;-2.134;2022-07-25T02:11:01;0.30;;;0.30;;
23628;SDS011;11991;57.150;-2.134;2022-07-25T02:13:29;0.32;;;0.30;;
23628;SDS011;11991;57.150;-2.134;2022-07-25T02:15:56;0.40;;;0.40;;
23628;SDS011;11991;57.150;-2.134;2022-07-25T02:18:24;0.30;;;0.30;;
23628;SDS011;11991;57.150;-2.134;2022-07-25T02:20:51;0.30;;;0.30;;
23628;SDS011;11991;57.150;-2.134;2022-07-25T02:23:19;0.30;;;0.30;;
23628;SDS011;11991;57.150;-2.134;2022-07-25T02:25:47;0.65;;;0.30;;
23628;SDS011;11991;57.150;-2.134;2022-07-25T02:28:16;0.40;;;0.40;;
23628;SDS011;11991;57.150;-2.134;2022-07-25T02:30:46;0.55;;;0.45;;
23628;SDS011;11991;57.150;-2.134;2022-07-25T02:33:14;0.40;;;0.40;;
23628;SDS011;11991;57.150;-2.134;2022-07-25T02:35:41;0.52;;;0.30;;
23628;SDS011;11991;57.150;-2.134;2022-07-25T02:38:12;0.30;;;0.30;;
23628;SDS011;11991;57.150;-2.134;2022-07-25T02:40:49;0.68;;;0.55;;
23628;SDS011;11991;57.150;-2.134;2022-07-25T02:43:18;0.82;;;0.50;;
23628;SDS011;11991;57.150;-2.134;2022-07-25T02:45:47;0.45;;;0.40;;
23628;SDS011;11991;57.150;-2.134;2022-07-25T02:48:15;0.40;;;0.40;;
23628;SDS011;11991;57.150;-2.134;2022-07-25T02:50:42;0.35;;;0.35;;
23628;SDS011;11991;57.150;-2.134;2022-07-25T02:53:11;0.50;;;0.50;;
23628;SDS011;11991;57.150;-2.134;2022-07-25T02:55:39;0.32;;;0.30;;
23628;SDS011;11991;57.150;-2.134;2022-07-25T02:58:06;0.43;;;0.40;;
23628;SDS011;11991;57.150;-2.134;2022-07-25T03:00:34;0.30;;;0.30;;
23628;SDS011;11991;57.150;-2.134;2022-07-25T03:03:02;0.40;;;0.40;;
23628;SDS011;11991;57.150;-2.134;2022-07-25T03:05:31;0.35;;;0.35;;
23628;SDS011;11991;57.150;-2.134;2022-07-25T03:07:59;0.38;;;0.30;;
23628;SDS011;11991;57.150;-2.134;2022-07-25T03:10:27;0.30;;;0.30;;
23628;SDS011;11991;57.150;-2.134;2022-07-25T03:12:55;0.30;;;0.30;;
23628;SDS011;11991;57.150;-2.134;2022-07-25T03:15:23;0.28;;;0.28;;
23628;SDS011;11991;57.150;-2.134;2022-07-25T03:17:51;0.30;;;0.30;;
23628;SDS011;11991;57.150;-2.134;2022-07-25T03:20:21;0.47;;;0.30;;
23628;SDS011;11991;57.150;-2.134;2022-07-25T03:23:00;0.30;;;0.30;;
23628;SDS011;11991;57.150;-2.134;2022-07-25T03:25:27;0.38;;;0.38;;
23628;SDS011;11991;57.150;-2.134;2022-07-25T03:27:54;0.40;;;0.40;;
23628;SDS011;11991;57.150;-2.134;2022-07-25T03:30:24;0.30;;;0.30;;
23628;SDS011;11991;57.150;-2.134;2022-07-25T03:32:52;0.40;;;0.40;;
23628;SDS011;11991;57.150;-2.134;2022-07-25T03:35:21;0.30;;;0.30;;
23628;SDS011;11991;57.150;-2.134;2022-07-25T03:37:49;0.30;;;0.30;;
23628;SDS011;11991;57.150;-2.134;2022-07-25T03:40:16;0.52;;;0.40;;
23628;SDS011;11991;57.150;-2.134;2022-07-25T03:42:44;0.35;;;0.35;;
23628;SDS011;11991;57.150;-2.134;2022-07-25T03:45:11;0.38;;;0.38;;
23628;SDS011;11991;57.150;-2.134;2022-07-25T03:47:40;0.30;;;0.30;;
23628;SDS011;11991;57.150;-2.134;2022-07-25T03:50:07;0.35;;;0.35;;
23628;SDS011;11991;57.150;-2.134;2022-07-25T03:52:35;0.30;;;0.30;;
23628;SDS011;11991;57.150;-2.134;2022-07-25T03:55:07;0.20;;;0.20;;
23628;SDS011;11991;57.150;-2.134;2022-07-25T03:57:36;0.30;;;0.30;;
23628;SDS011;11991;57.150;-2.134;2022-07-25T04:00:06;0.30;;;0.30;;
23628;SDS011;11991;57.150;-2.134;2022-07-25T04:02:36;0.30;;;0.30;;
23628;SDS011;11991;57.150;-2.134;2022-07-25T04:05:06;0.20;;;0.20;;
23628;SDS011;11991;57.150;-2.134;2022-07-25T04:07:36;0.30;;;0.30;;
23628;SDS011;11991;57.150;-2.134;2022-07-25T04:10:06;0.30;;;0.30;;
23628;SDS011;11991;57.150;-2.134;2022-07-25T04:12:34;0.20;;;0.20;;
23628;SDS011;11991;57.150;-2.134;2022-07-25T04:15:03;0.30;;;0.30;;
23628;SDS011;11991;57.150;-2.134;2022-07-25T04:17:32;0.25;;;0.25;;
23628;SDS011;11991;57.150;-2.134;2022-07-25T04:20:07;0.32;;;0.30;;
23628;SDS011;11991;57.150;-2.134;2022-07-25T04:22:43;0.32;;;0.30;;
23628;SDS011;11991;57.150;-2.134;2022-07-25T04:25:12;0.20;;;0.20;;
23628;SDS011;11991;57.150;-2.134;2022-07-25T04:27:41;0.30;;;0.30;;
23628;SDS011;11991;57.150;-2.134;2022-07-25T04:30:10;0.20;;;0.20;;
23628;SDS011;11991;57.150;-2.134;2022-07-25T04:32:49;0.40;;;0.40;;
23628;SDS011;11991;57.150;-2.134;2022-07-25T04:35:17;0.30;;;0.30;;
23628;SDS011;11991;57.150;-2.134;2022-07-25T04:37:45;0.77;;;0.35;;
23628;SDS011;11991;57.150;-2.134;2022-07-25T04:40:13;0.20;;;0.20;;
23628;SDS011;11991;57.150;-2.134;2022-07-25T04:42:40;0.20;;;0.20;;
23628;SDS011;11991;57.150;-2.134;2022-07-25T04:45:08;0.45;;;0.30;;
23628;SDS011;11991;57.150;-2.134;2022-07-25T04:47:37;0.20;;;0.20;;
23628;SDS011;11991;57.150;-2.134;2022-07-25T04:50:05;0.30;;;0.30;;
23628;SDS011;11991;57.150;-2.134;2022-07-25T04:52:33;0.20;;;0.20;;
23628;SDS011;11991;57.150;-2.134;2022-07-25T04:55:04;0.20;;;0.20;;
23628;SDS011;11991;57.150;-2.134;2022-07-25T04:57:36;0.30;;;0.30;;
23628;SDS011;11991;57.150;-2.134;2022-07-25T05:00:06;0.30;;;0.30;;
23628;SDS011;11991;57.150;-2.134;2022-07-25T05:02:36;0.20;;;0.20;;
23628;SDS011;11991;57.150;-2.134;2022-07-25T05:05:08;0.20;;;0.20;;
23628;SDS011;11991;57.150;-2.134;2022-07-25T05:07:48;0.30;;;0.30;;
23628;SDS011;11991;57.150;-2.134;2022-07-25T05:10:17;0.20;;;0.20;;
23628;SDS011;11991;57.150;-2.134;2022-07-25T05:12:45;0.22;;;0.22;;
23628;SDS011;11991;57.150;-2.134;2022-07-25T05:15:16;0.30;;;0.20;;
23628;SDS011;11991;57.150;-2.134;2022-07-25T05:17:43;0.20;;;0.20;;
23628;SDS011;11991;57.150;-2.134;2022-07-25T05:20:13;0.22;;;0.22;;
23628;SDS011;11991;57.150;-2.134;2022-07-25T05:22:42;0.20;;;0.20;;
23628;SDS011;11991;57.150;-2.134;2022-07-25T05:25:12;0.20;;;0.20;;
23628;SDS011;11991;57.150;-2.134;2022-07-25T05:27:45;0.30;;;0.30;;
23628;SDS011;11991;57.150;-2.134;2022-07-25T05:30:14;0.22;;;0.20;;
23628;SDS011;11991;57.150;-2.134;2022-07-25T05:32:45;0.28;;;0.28;;
23628;SDS011;11991;57.150;-2.134;2022-07-25T05:35:14;0.40;;;0.40;;
23628;SDS011;11991;57.150;-2.134;2022-07-25T05:37:43;0.30;;;0.30;;
23628;SDS011;11991;57.150;-2.134;2022-07-25T05:40:12;0.20;;;0.20;;
23628;SDS011;11991;57.150;-2.134;2022-07-25T05:42:41;0.30;;;0.30;;
23628;SDS011;11991;57.150;-2.134;2022-07-25T05:45:09;0.20;;;0.20;;
23628;SDS011;11991;57.150;-2.134;2022-07-25T05:47:37;0.20;;;0.20;;
23628;SDS011;11991;57.150;-2.134;2022-07-25T05:50:05;0.20;;;0.20;;
23628;SDS011;11991;57.150;-2.134;2022-07-25T05:52:33;0.30;;;0.30;;
23628;SDS011;11991;57.150;-2.134;2022-07-25T05:55:11;0.30;;;0.30;;
23628;SDS011;11991;57.150;-2.134;2022-07-25T05:57:39;0.30;;;0.30;;
23628;SDS011;11991;57.150;-2.134;2022-07-25T06:00:07;0.40;;;0.30;;
23628;SDS011;11991;57.150;-2.134;2022-07-25T06:02:35;0.30;;;0.30;;
23628;SDS011;11991;57.150;-2.134;2022-07-25T06:05:04;0.93;;;0.30;;
23628;SDS011;11991;57.150;-2.134;2022-07-25T06:07:34;0.35;;;0.30;;
23628;SDS011;11991;57.150;-2.134;2022-07-25T06:10:04;1.45;;;0.30;;
23628;SDS011;11991;57.150;-2.134;2022-07-25T06:12:33;0.20;;;0.20;;
23628;SDS011;11991;57.150;-2.134;2022-07-25T06:15:04;0.30;;;0.30;;
23628;SDS011;11991;57.150;-2.134;2022-07-25T06:17:31;0.20;;;0.20;;
23628;SDS011;11991;57.150;-2.134;2022-07-25T06:20:02;0.20;;;0.20;;
23628;SDS011;11991;57.150;-2.134;2022-07-25T06:22:30;0.22;;;0.13;;
23628;SDS011;11991;57.150;-2.134;2022-07-25T06:25:07;0.20;;;0.20;;
23628;SDS011;11991;57.150;-2.134;2022-07-25T06:27:46;0.20;;;0.20;;
23628;SDS011;11991;57.150;-2.134;2022-07-25T06:30:14;0.20;;;0.20;;
23628;SDS011;11991;57.150;-2.134;2022-07-25T06:32:54;0.25;;;0.25;;
23628;SDS011;11991;57.150;-2.134;2022-07-25T06:35:26;0.95;;;0.30;;
23628;SDS011;11991;57.150;-2.134;2022-07-25T06:37:54;0.20;;;0.20;;
23628;SDS011;11991;57.150;-2.134;2022-07-25T06:40:22;0.30;;;0.30;;
23628;SDS011;11991;57.150;-2.134;2022-07-25T06:42:52;1.20;;;0.38;;
23628;SDS011;11991;57.150;-2.134;2022-07-25T06:45:22;0.40;;;0.30;;
23628;SDS011;11991;57.150;-2.134;2022-07-25T06:47:51;0.32;;;0.32;;
23628;SDS011;11991;57.150;-2.134;2022-07-25T06:50:19;0.85;;;0.30;;
23628;SDS011;11991;57.150;-2.134;2022-07-25T06:52:47;0.35;;;0.35;;
23628;SDS011;11991;57.150;-2.134;2022-07-25T06:55:15;0.60;;;0.47;;
23628;SDS011;11991;57.150;-2.134;2022-07-25T06:57:42;0.65;;;0.40;;
23628;SDS011;11991;57.150;-2.134;2022-07-25T07:00:11;0.40;;;0.40;;
23628;SDS011;11991;57.150;-2.134;2022-07-25T07:02:49;0.40;;;0.40;;
23628;SDS011;11991;57.150;-2.134;2022-07-25T07:05:24;0.55;;;0.40;;
23628;SDS011;11991;57.150;-2.134;2022-07-25T07:07:54;0.52;;;0.40;;
23628;SDS011;11991;57.150;-2.134;2022-07-25T07:10:22;0.32;;;0.32;;
23628;SDS011;11991;57.150;-2.134;2022-07-25T07:13:01;0.40;;;0.40;;
23628;SDS011;11991;57.150;-2.134;2022-07-25T07:15:32;1.00;;;0.40;;
23628;SDS011;11991;57.150;-2.134;2022-07-25T07:18:01;0.35;;;0.30;;
23628;SDS011;11991;57.150;-2.134;2022-07-25T07:20:29;0.45;;;0.45;;
23628;SDS011;11991;57.150;-2.134;2022-07-25T07:22:59;0.30;;;0.30;;
23628;SDS011;11991;57.150;-2.134;2022-07-25T07:25:29;0.25;;;0.25;;
23628;SDS011;11991;57.150;-2.134;2022-07-25T07:27:58;0.20;;;0.20;;
23628;SDS011;11991;57.150;-2.134;2022-07-25T07:30:29;0.30;;;0.30;;
23628;SDS011;11991;57.150;-2.134;2022-07-25T07:33:17;0.30;;;0.30;;
23628;SDS011;11991;57.150;-2.134;2022-07-25T07:35:45;0.30;;;0.30;;
23628;SDS011;11991;57.150;-2.134;2022-07-25T07:38:13;1.23;;;0.30;;
23628;SDS011;11991;57.150;-2.134;2022-07-25T07:40:40;0.30;;;0.30;;
23628;SDS011;11991;57.150;-2.134;2022-07-25T07:43:08;0.43;;;0.30;;
23628;SDS011;11991;57.150;-2.134;2022-07-25T07:45:37;0.35;;;0.35;;
23628;SDS011;11991;57.150;-2.134;2022-07-25T07:48:06;1.35;;;0.35;;
23628;SDS011;11991;57.150;-2.134;2022-07-25T07:50:35;0.47;;;0.45;;
23628;SDS011;11991;57.150;-2.134;2022-07-25T07:53:03;0.35;;;0.35;;
23628;SDS011;11991;57.150;-2.134;2022-07-25T07:55:33;1.08;;;0.30;;
23628;SDS011;11991;57.150;-2.134;2022-07-25T07:58:19;0.30;;;0.30;;
23628;SDS011;11991;57.150;-2.134;2022-07-25T08:00:48;0.30;;;0.30;;
23628;SDS011;11991;57.150;-2.134;2022-07-25T08:03:20;0.45;;;0.40;;
23628;SDS011;11991;57.150;-2.134;2022-07-25T08:08:25;0.40;;;0.40;;
23628;SDS011;11991;57.150;-2.134;2022-07-25T08:10:58;0.40;;;0.40;;
23628;SDS011;11991;57.150;-2.134;2022-07-25T08:13:27;0.40;;;0.40;;
23628;SDS011;11991;57.150;-2.134;2022-07-25T08:16:06;0.93;;;0.50;;
23628;SDS011;11991;57.150;-2.134;2022-07-25T08:18:34;0.50;;;0.50;;
23628;SDS011;11991;57.150;-2.134;2022-07-25T08:21:04;0.40;;;0.40;;
23628;SDS011;11991;57.150;-2.134;2022-07-25T08:23:34;0.40;;;0.40;;
23628;SDS011;11991;57.150;-2.134;2022-07-25T08:26:06;0.52;;;0.40;;
23628;SDS011;11991;57.150;-2.134;2022-07-25T08:28:34;0.43;;;0.40;;
23628;SDS011;11991;57.150;-2.134;2022-07-25T08:31:08;0.30;;;0.30;;
23628;SDS011;11991;57.150;-2.134;2022-07-25T08:33:39;0.30;;;0.30;;
23628;SDS011;11991;57.150;-2.134;2022-07-25T08:36:17;0.40;;;0.40;;
23628;SDS011;11991;57.150;-2.134;2022-07-25T08:38:45;0.50;;;0.40;;
23628;SDS011;11991;57.150;-2.134;2022-07-25T08:41:16;0.30;;;0.30;;
23628;SDS011;11991;57.150;-2.134;2022-07-25T08:43:51;0.30;;;0.30;;
23628;SDS011;11991;57.150;-2.134;2022-07-25T08:46:20;0.30;;;0.30;;
23628;SDS011;11991;57.150;-2.134;2022-07-25T08:48:51;0.73;;;0.60;;
23628;SDS011;11991;57.150;-2.134;2022-07-25T08:51:22;0.30;;;0.30;;
23628;SDS011;11991;57.150;-2.134;2022-07-25T08:54:05;0.63;;;0.40;;
23628;SDS011;11991;57.150;-2.134;2022-07-25T08:56:48;0.30;;;0.30;;
23628;SDS011;11991;57.150;-2.134;2022-07-25T08:59:16;1.02;;;0.93;;
23628;SDS011;11991;57.150;-2.134;2022-07-25T09:01:59;0.52;;;0.32;;
23628;SDS011;11991;57.150;-2.134;2022-07-25T09:04:31;0.30;;;0.30;;
23628;SDS011;11991;57.150;-2.134;2022-07-25T09:06:59;0.63;;;0.40;;
23628;SDS011;11991;57.150;-2.134;2022-07-25T09:09:34;0.30;;;0.30;;
23628;SDS011;11991;57.150;-2.134;2022-07-25T09:12:09;1.45;;;0.50;;
23628;SDS011;11991;57.150;-2.134;2022-07-25T09:14:49;0.60;;;0.30;;
23628;SDS011;11991;57.150;-2.134;2022-07-25T09:17:47;0.38;;;0.30;;
23628;SDS011;11991;57.150;-2.134;2022-07-25T09:20:19;0.40;;;0.40;;
23628;SDS011;11991;57.150;-2.134;2022-07-25T09:23:04;0.55;;;0.40;;
23628;SDS011;11991;57.150;-2.134;2022-07-25T09:26:12;1.23;;;0.40;;
23628;SDS011;11991;57.150;-2.134;2022-07-25T09:28:55;0.32;;;0.32;;
23628;SDS011;11991;57.150;-2.134;2022-07-25T09:32:12;4.38;;;0.88;;
23628;SDS011;11991;57.150;-2.134;2022-07-25T09:35:12;0.40;;;0.40;;
23628;SDS011;11991;57.150;-2.134;2022-07-25T09:38:05;0.30;;;0.30;;
23628;SDS011;11991;57.150;-2.134;2022-07-25T09:40:54;1.42;;;0.40;;
23628;SDS011;11991;57.150;-2.134;2022-07-25T09:43:37;0.40;;;0.40;;
23628;SDS011;11991;57.150;-2.134;2022-07-25T09:46:29;0.63;;;0.38;;
23628;SDS011;11991;57.150;-2.134;2022-07-25T09:49:16;0.20;;;0.20;;
23628;SDS011;11991;57.150;-2.134;2022-07-25T09:52:31;0.30;;;0.30;;
23628;SDS011;11991;57.150;-2.134;2022-07-25T09:55:13;2.20;;;0.40;;
23628;SDS011;11991;57.150;-2.134;2022-07-25T09:58:00;0.88;;;0.40;;
23628;SDS011;11991;57.150;-2.134;2022-07-25T10:00:44;0.70;;;0.28;;
23628;SDS011;11991;57.150;-2.134;2022-07-25T10:07:10;0.30;;;0.30;;
23628;SDS011;11991;57.150;-2.134;2022-07-25T10:10:05;0.82;;;0.40;;
23628;SDS011;11991;57.150;-2.134;2022-07-25T10:13:14;0.65;;;0.30;;
23628;SDS011;11991;57.150;-2.134;2022-07-25T10:15:59;0.68;;;0.40;;
23628;SDS011;11991;57.150;-2.134;2022-07-25T10:18:48;1.27;;;0.43;;
23628;SDS011;11991;57.150;-2.134;2022-07-25T10:21:41;0.40;;;0.40;;
23628;SDS011;11991;57.150;-2.134;2022-07-25T10:24:36;0.93;;;0.50;;
23628;SDS011;11991;57.150;-2.134;2022-07-25T10:27:26;1.13;;;0.40;;
23628;SDS011;11991;57.150;-2.134;2022-07-25T10:30:32;0.90;;;0.38;;
23628;SDS011;11991;57.150;-2.134;2022-07-25T10:33:26;0.30;;;0.30;;
23628;SDS011;11991;57.150;-2.134;2022-07-25T10:36:11;0.82;;;0.50;;
23628;SDS011;11991;57.150;-2.134;2022-07-25T10:38:57;0.73;;;0.63;;
23628;SDS011;11991;57.150;-2.134;2022-07-25T10:41:54;2.95;;;0.60;;
23628;SDS011;11991;57.150;-2.134;2022-07-25T10:45:03;0.93;;;0.77;;
23628;SDS011;11991;57.150;-2.134;2022-07-25T10:47:55;1.20;;;0.52;;
23628;SDS011;11991;57.150;-2.134;2022-07-25T10:50:47;1.77;;;0.70;;
23628;SDS011;11991;57.150;-2.134;2022-07-25T10:53:45;1.30;;;0.70;;
23628;SDS011;11991;57.150;-2.134;2022-07-25T10:56:35;1.50;;;0.75;;
23628;SDS011;11991;57.150;-2.134;2022-07-25T10:59:24;2.60;;;0.82;;
23628;SDS011;11991;57.150;-2.134;2022-07-25T11:02:10;1.73;;;0.80;;
23628;SDS011;11991;57.150;-2.134;2022-07-25T11:04:56;1.95;;;0.90;;
23628;SDS011;11991;57.150;-2.134;2022-07-25T11:07:28;1.52;;;0.80;;
23628;SDS011;11991;57.150;-2.134;2022-07-25T11:10:15;2.22;;;0.98;;
23628;SDS011;11991;57.150;-2.134;2022-07-25T11:12:54;2.00;;;0.75;;
23628;SDS011;11991;57.150;-2.134;2022-07-25T11:15:35;0.77;;;0.75;;
23628;SDS011;11991;57.150;-2.134;2022-07-25T11:18:05;0.88;;;0.60;;
23628;SDS011;11991;57.150;-2.134;2022-07-25T11:20:36;2.38;;;0.80;;
23628;SDS011;11991;57.150;-2.134;2022-07-25T11:23:22;1.30;;;0.70;;
23628;SDS011;11991;57.150;-2.134;2022-07-25T11:26:06;2.50;;;1.10;;
23628;SDS011;11991;57.150;-2.134;2022-07-25T11:28:50;2.03;;;0.80;;
23628;SDS011;11991;57.150;-2.134;2022-07-25T11:31:27;1.10;;;0.60;;
23628;SDS011;11991;57.150;-2.134;2022-07-25T11:34:04;0.70;;;0.68;;
23628;SDS011;11991;57.150;-2.134;2022-07-25T11:36:47;1.65;;;0.65;;
23628;SDS011;11991;57.150;-2.134;2022-07-25T11:39:33;2.47;;;0.80;;
23628;SDS011;11991;57.150;-2.134;2022-07-25T11:42:14;1.65;;;0.50;;
23628;SDS011;11991;57.150;-2.134;2022-07-25T11:44:59;1.75;;;0.90;;
23628;SDS011;11991;57.150;-2.134;2022-07-25T11:50:47;3.17;;;1.00;;
23628;SDS011;11991;57.150;-2.134;2022-07-25T11:53:17;3.22;;;1.30;;
23628;SDS011;11991;57.150;-2.134;2022-07-25T11:55:59;1.15;;;0.90;;
23628;SDS011;11991;57.150;-2.134;2022-07-25T11:59:00;1.83;;;1.13;;
23628;SDS011;11991;57.150;-2.134;2022-07-25T12:01:35;2.25;;;0.95;;
23628;SDS011;11991;57.150;-2.134;2022-07-25T12:04:20;3.35;;;1.15;;
23628;SDS011;11991;57.150;-2.134;2022-07-25T12:06:49;3.08;;;1.60;;
23628;SDS011;11991;57.150;-2.134;2022-07-25T12:09:25;2.47;;;1.20;;
23628;SDS011;11991;57.150;-2.134;2022-07-25T12:12:01;3.60;;;1.33;;
23628;SDS011;11991;57.150;-2.134;2022-07-25T12:14:43;3.17;;;1.60;;
23628;SDS011;11991;57.150;-2.134;2022-07-25T12:17:24;5.25;;;2.28;;
23628;SDS011;11991;57.150;-2.134;2022-07-25T12:19:59;2.33;;;1.20;;
23628;SDS011;11991;57.150;-2.134;2022-07-25T12:22:41;3.95;;;1.80;;
23628;SDS011;11991;57.150;-2.134;2022-07-25T12:25:17;4.97;;;1.65;;
23628;SDS011;11991;57.150;-2.134;2022-07-25T12:27:53;5.63;;;1.80;;
23628;SDS011;11991;57.150;-2.134;2022-07-25T12:30:38;5.28;;;2.10;;
23628;SDS011;11991;57.150;-2.134;2022-07-25T12:33:11;4.30;;;1.90;;
23628;SDS011;11991;57.150;-2.134;2022-07-25T12:35:52;6.07;;;2.22;;
23628;SDS011;11991;57.150;-2.134;2022-07-25T12:38:20;3.75;;;1.73;;
23628;SDS011;11991;57.150;-2.134;2022-07-25T12:40:53;3.95;;;1.67;;
23628;SDS011;11991;57.150;-2.134;2022-07-25T12:43:41;5.45;;;1.98;;
23628;SDS011;11991;57.150;-2.134;2022-07-25T12:46:09;6.72;;;1.92;;
23628;SDS011;11991;57.150;-2.134;2022-07-25T12:48:41;5.07;;;1.92;;
23628;SDS011;11991;57.150;-2.134;2022-07-25T12:51:18;4.90;;;2.17;;
23628;SDS011;11991;57.150;-2.134;2022-07-25T12:53:59;5.40;;;1.75;;
23628;SDS011;11991;57.150;-2.134;2022-07-25T12:56:27;3.92;;;1.60;;
23628;SDS011;11991;57.150;-2.134;2022-07-25T12:58:56;5.97;;;1.80;;
23628;SDS011;11991;57.150;-2.134;2022-07-25T13:01:26;5.95;;;1.50;;
23628;SDS011;11991;57.150;-2.134;2022-07-25T13:04:01;7.43;;;1.90;;
23628;SDS011;11991;57.150;-2.134;2022-07-25T13:06:46;4.35;;;1.45;;
23628;SDS011;11991;57.150;-2.134;2022-07-25T13:09:16;4.13;;;1.50;;
23628;SDS011;11991;57.150;-2.134;2022-07-25T13:11:48;5.05;;;1.98;;
23628;SDS011;11991;57.150;-2.134;2022-07-25T13:14:17;4.47;;;1.85;;
23628;SDS011;11991;57.150;-2.134;2022-07-25T13:16:51;6.80;;;1.67;;
23628;SDS011;11991;57.150;-2.134;2022-07-25T13:19:21;5.78;;;1.80;;
23628;SDS011;11991;57.150;-2.134;2022-07-25T13:21:49;6.38;;;1.73;;
23628;SDS011;11991;57.150;-2.134;2022-07-25T13:24:18;4.43;;;1.48;;
23628;SDS011;11991;57.150;-2.134;2022-07-25T13:26:47;4.80;;;1.42;;
23628;SDS011;11991;57.150;-2.134;2022-07-25T13:29:15;3.28;;;1.50;;
23628;SDS011;11991;57.150;-2.134;2022-07-25T13:31:45;4.15;;;1.20;;
23628;SDS011;11991;57.150;-2.134;2022-07-25T13:34:13;4.47;;;1.83;;
23628;SDS011;11991;57.150;-2.134;2022-07-25T13:36:41;11.15;;;2.20;;
23628;SDS011;11991;57.150;-2.134;2022-07-25T13:39:17;2.47;;;1.35;;
23628;SDS011;11991;57.150;-2.134;2022-07-25T13:41:50;2.90;;;1.42;;
23628;SDS011;11991;57.150;-2.134;2022-07-25T13:44:19;5.13;;;1.67;;
23628;SDS011;11991;57.150;-2.134;2022-07-25T13:47:03;8.25;;;1.70;;
23628;SDS011;11991;57.150;-2.134;2022-07-25T13:49:32;7.82;;;2.00;;
23628;SDS011;11991;57.150;-2.134;2022-07-25T13:52:13;6.15;;;1.33;;
23628;SDS011;11991;57.150;-2.134;2022-07-25T13:54:44;2.58;;;1.42;;
23628;SDS011;11991;57.150;-2.134;2022-07-25T13:57:13;4.90;;;1.73;;
23628;SDS011;11991;57.150;-2.134;2022-07-25T13:59:54;6.18;;;1.60;;
23628;SDS011;11991;57.150;-2.134;2022-07-25T14:02:22;2.42;;;1.30;;
23628;SDS011;11991;57.150;-2.134;2022-07-25T14:04:53;4.25;;;1.40;;
23628;SDS011;11991;57.150;-2.134;2022-07-25T14:07:24;2.28;;;1.30;;
23628;SDS011;11991;57.150;-2.134;2022-07-25T14:09:53;3.78;;;1.45;;
23628;SDS011;11991;57.150;-2.134;2022-07-25T14:12:23;4.35;;;1.35;;
23628;SDS011;11991;57.150;-2.134;2022-07-25T14:14:53;6.15;;;1.70;;
23628;SDS011;11991;57.150;-2.134;2022-07-25T14:17:34;8.15;;;1.77;;
23628;SDS011;11991;57.150;-2.134;2022-07-25T14:20:06;3.78;;;1.58;;
23628;SDS011;11991;57.150;-2.134;2022-07-25T14:22:35;3.10;;;1.80;;
23628;SDS011;11991;57.150;-2.134;2022-07-25T14:25:05;5.63;;;1.73;;
23628;SDS011;11991;57.150;-2.134;2022-07-25T14:27:35;6.07;;;2.22;;
23628;SDS011;11991;57.150;-2.134;2022-07-25T14:30:07;8.13;;;1.88;;
23628;SDS011;11991;57.150;-2.134;2022-07-25T14:32:38;5.88;;;1.80;;
23628;SDS011;11991;57.150;-2.134;2022-07-25T14:35:14;5.03;;;1.83;;
23628;SDS011;11991;57.150;-2.134;2022-07-25T14:37:44;5.20;;;1.90;;
23628;SDS011;11991;57.150;-2.134;2022-07-25T14:40:13;5.95;;;2.00;;
23628;SDS011;11991;57.150;-2.134;2022-07-25T14:42:48;6.97;;;2.10;;
23628;SDS011;11991;57.150;-2.134;2022-07-25T14:45:29;6.18;;;1.83;;
23628;SDS011;11991;57.150;-2.134;2022-07-25T14:47:57;5.72;;;2.20;;
23628;SDS011;11991;57.150;-2.134;2022-07-25T14:50:25;12.25;;;2.08;;
23628;SDS011;11991;57.150;-2.134;2022-07-25T14:53:07;5.57;;;2.55;;
23628;SDS011;11991;57.150;-2.134;2022-07-25T14:55:43;5.35;;;1.73;;
23628;SDS011;11991;57.150;-2.134;2022-07-25T14:58:13;4.50;;;1.73;;
23628;SDS011;11991;57.150;-2.134;2022-07-25T15:00:43;8.68;;;2.17;;
23628;SDS011;11991;57.150;-2.134;2022-07-25T15:03:17;4.47;;;1.98;;
23628;SDS011;11991;57.150;-2.134;2022-07-25T15:05:59;6.95;;;1.77;;
23628;SDS011;11991;57.150;-2.134;2022-07-25T15:08:40;5.40;;;1.88;;
23628;SDS011;11991;57.150;-2.134;2022-07-25T15:11:08;4.80;;;1.63;;
23628;SDS011;11991;57.150;-2.134;2022-07-25T15:13:41;5.82;;;1.92;;
23628;SDS011;11991;57.150;-2.134;2022-07-25T15:16:11;5.20;;;1.70;;
23628;SDS011;11991;57.150;-2.134;2022-07-25T15:18:44;4.63;;;1.85;;
23628;SDS011;11991;57.150;-2.134;2022-07-25T15:21:43;3.20;;;1.40;;